sensor_id;sensor_type;location;lat;lon;timestamp;temperature;humidity
9802;DHT22;4940;50.900;4.672;2023-04-01T00:11:41;10.30;99.90
9802;DHT22;4940;50.900;4.672;2023-04-01T00:14:08;10.60;99.90
9802;DHT22;4940;50.900;4.672;2023-04-01T00:19:05;10.40;99.90
9802;DHT22;4940;50.900;4.672;2023-04-01T00:21:33;10.40;99.90
9802;DHT22;4940;50.900;4.672;2023-04-01T00:33:51;10.40;99.90
9802;DHT22;4940;50.900;4.672;2023-04-01T00:36:21;10.50;99.90
9802;DHT22;4940;50.900;4.672;2023-04-01T00:41:18;10.40;99.90
9802;DHT22;4940;50.900;4.672;2023-04-01T00:43:48;10.40;99.90
9802;DHT22;4940;50.900;4.672;2023-04-01T00:48:46;10.40;99.90
9802;DHT22;4940;50.900;4.672;2023-04-01T00:51:16;10.40;99.90
9802;DHT22;4940;50.900;4.672;2023-04-01T00:53:48;10.30;99.90
9802;DHT22;4940;50.900;4.672;2023-04-01T00:56:19;10.40;99.90
9802;DHT22;4940;50.900;4.672;2023-04-01T00:58:51;10.40;99.90
9802;DHT22;4940;50.900;4.672;2023-04-01T01:01:22;10.30;99.90
9802;DHT22;4940;50.900;4.672;2023-04-01T01:03:51;10.40;99.90
9802;DHT22;4940;50.900;4.672;2023-04-01T01:06:26;10.40;99.90
9802;DHT22;4940;50.900;4.672;2023-04-01T01:09:10;10.40;99.90
9802;DHT22;4940;50.900;4.672;2023-04-01T01:11:43;10.40;99.90
9802;DHT22;4940;50.900;4.672;2023-04-01T01:14:22;10.40;99.90
9802;DHT22;4940;50.900;4.672;2023-04-01T01:16:54;10.30;99.90
9802;DHT22;4940;50.900;4.672;2023-04-01T01:19:57;10.20;99.90
9802;DHT22;4940;50.900;4.672;2023-04-01T01:22:46;10.40;99.90
9802;DHT22;4940;50.900;4.672;2023-04-01T01:25:32;10.40;99.90
9802;DHT22;4940;50.900;4.672;2023-04-01T01:28:14;10.30;99.90
9802;DHT22;4940;50.900;4.672;2023-04-01T01:30:51;10.20;99.90
9802;DHT22;4940;50.900;4.672;2023-04-01T01:33:41;10.40;99.90
9802;DHT22;4940;50.900;4.672;2023-04-01T01:36:13;10.20;99.90
9802;DHT22;4940;50.900;4.672;2023-04-01T01:41:11;10.50;99.90
9802;DHT22;4940;50.900;4.672;2023-04-01T01:43:43;10.30;99.90
9802;DHT22;4940;50.900;4.672;2023-04-01T01:46:13;10.30;99.90
9802;DHT22;4940;50.900;4.672;2023-04-01T01:48:42;10.30;99.90
9802;DHT22;4940;50.900;4.672;2023-04-01T01:58:37;10.20;99.90
9802;DHT22;4940;50.900;4.672;2023-04-01T02:01:09;10.30;99.90
9802;DHT22;4940;50.900;4.672;2023-04-01T02:03:39;10.30;99.90
9802;DHT22;4940;50.900;4.672;2023-04-01T02:06:09;10.30;99.90
9802;DHT22;4940;50.900;4.672;2023-04-01T02:08:41;10.30;99.90
9802;DHT22;4940;50.900;4.672;2023-04-01T02:11:11;10.30;99.90
9802;DHT22;4940;50.900;4.672;2023-04-01T02:13:43;10.30;99.90
9802;DHT22;4940;50.900;4.672;2023-04-01T02:16:14;13.90;99.90
9802;DHT22;4940;50.900;4.672;2023-04-01T02:18:43;10.20;99.90
9802;DHT22;4940;50.900;4.672;2023-04-01T02:21:12;10.20;99.90
9802;DHT22;4940;50.900;4.672;2023-04-01T02:26:11;10.20;99.90
9802;DHT22;4940;50.900;4.672;2023-04-01T02:28:40;10.20;99.90
9802;DHT22;4940;50.900;4.672;2023-04-01T02:31:10;11.60;99.90
9802;DHT22;4940;50.900;4.672;2023-04-01T02:33:38;10.20;99.90
9802;DHT22;4940;50.900;4.672;2023-04-01T02:36:07;10.20;99.90
9802;DHT22;4940;50.900;4.672;2023-04-01T02:48:28;10.10;99.90
9802;DHT22;4940;50.900;4.672;2023-04-01T02:53:24;10.10;99.90
9802;DHT22;4940;50.900;4.672;2023-04-01T03:13:05;10.10;99.90
9802;DHT22;4940;50.900;4.672;2023-04-01T03:15:34;10.10;99.90
9802;DHT22;4940;50.900;4.672;2023-04-01T03:32:49;10.10;99.90
9802;DHT22;4940;50.900;4.672;2023-04-01T03:40:11;10.10;99.90
9802;DHT22;4940;50.900;4.672;2023-04-01T03:45:07;10.10;99.90
9802;DHT22;4940;50.900;4.672;2023-04-01T03:50:04;10.00;99.90
9802;DHT22;4940;50.900;4.672;2023-04-01T03:55:00;10.10;99.90
9802;DHT22;4940;50.900;4.672;2023-04-01T04:07:19;10.10;99.90
9802;DHT22;4940;50.900;4.672;2023-04-01T04:17:10;10.10;99.90
9802;DHT22;4940;50.900;4.672;2023-04-01T04:24:38;10.00;99.90
9802;DHT22;4940;50.900;4.672;2023-04-01T04:41:52;10.10;99.90
9802;DHT22;4940;50.900;4.672;2023-04-01T04:54:10;10.10;99.90
9802;DHT22;4940;50.900;4.672;2023-04-01T05:16:22;9.80;99.90
9802;DHT22;4940;50.900;4.672;2023-04-01T05:26:13;10.00;99.90
9802;DHT22;4940;50.900;4.672;2023-04-01T05:33:37;10.00;99.90
9802;DHT22;4940;50.900;4.672;2023-04-01T05:36:09;10.10;99.90
9802;DHT22;4940;50.900;4.672;2023-04-01T05:50:55;10.10;99.90
9802;DHT22;4940;50.900;4.672;2023-04-01T06:05:41;10.10;99.90
9802;DHT22;4940;50.900;4.672;2023-04-01T06:08:12;10.10;99.90
9802;DHT22;4940;50.900;4.672;2023-04-01T06:11:04;10.10;99.90
9802;DHT22;4940;50.900;4.672;2023-04-01T06:13:43;10.10;99.90
9802;DHT22;4940;50.900;4.672;2023-04-01T06:16:15;10.10;99.90
9802;DHT22;4940;50.900;4.672;2023-04-01T06:19:02;10.10;99.90
9802;DHT22;4940;50.900;4.672;2023-04-01T06:24:41;10.10;99.90
9802;DHT22;4940;50.900;4.672;2023-04-01T06:27:18;10.10;99.90
9802;DHT22;4940;50.900;4.672;2023-04-01T06:29:57;10.10;99.90
9802;DHT22;4940;50.900;4.672;2023-04-01T06:32:51;10.10;99.90
9802;DHT22;4940;50.900;4.672;2023-04-01T06:35:41;10.10;99.90
9802;DHT22;4940;50.900;4.672;2023-04-01T06:38:34;10.10;99.90
9802;DHT22;4940;50.900;4.672;2023-04-01T06:44:29;10.10;99.90
9802;DHT22;4940;50.900;4.672;2023-04-01T06:47:10;10.10;99.90
9802;DHT22;4940;50.900;4.672;2023-04-01T06:49:49;10.10;99.90
9802;DHT22;4940;50.900;4.672;2023-04-01T06:52:26;10.10;99.90
9802;DHT22;4940;50.900;4.672;2023-04-01T06:55:02;10.40;99.90
9802;DHT22;4940;50.900;4.672;2023-04-01T06:57:35;10.10;99.90
9802;DHT22;4940;50.900;4.672;2023-04-01T07:00:13;10.10;99.90
9802;DHT22;4940;50.900;4.672;2023-04-01T07:02:47;10.10;99.90
9802;DHT22;4940;50.900;4.672;2023-04-01T07:05:20;10.10;99.90
9802;DHT22;4940;50.900;4.672;2023-04-01T07:07:49;10.20;99.90
9802;DHT22;4940;50.900;4.672;2023-04-01T07:10:20;10.40;99.90
9802;DHT22;4940;50.900;4.672;2023-04-01T07:12:52;10.20;99.90
9802;DHT22;4940;50.900;4.672;2023-04-01T07:15:26;10.20;99.90
9802;DHT22;4940;50.900;4.672;2023-04-01T07:17:58;10.20;99.90
9802;DHT22;4940;50.900;4.672;2023-04-01T07:20:29;10.20;99.90
9802;DHT22;4940;50.900;4.672;2023-04-01T07:22:59;10.20;99.90
9802;DHT22;4940;50.900;4.672;2023-04-01T07:25:30;10.30;99.90
9802;DHT22;4940;50.900;4.672;2023-04-01T07:28:03;10.10;99.90
9802;DHT22;4940;50.900;4.672;2023-04-01T07:30:43;10.20;99.90
9802;DHT22;4940;50.900;4.672;2023-04-01T07:33:15;10.20;99.90
9802;DHT22;4940;50.900;4.672;2023-04-01T07:35:46;10.30;99.90
9802;DHT22;4940;50.900;4.672;2023-04-01T07:38:22;10.10;99.90
9802;DHT22;4940;50.900;4.672;2023-04-01T07:40:58;10.20;99.90
9802;DHT22;4940;50.900;4.672;2023-04-01T07:43:42;10.30;99.90
9802;DHT22;4940;50.900;4.672;2023-04-01T07:46:24;10.30;99.90
9802;DHT22;4940;50.900;4.672;2023-04-01T07:49:00;10.10;99.90
9802;DHT22;4940;50.900;4.672;2023-04-01T07:51:37;10.20;99.90
9802;DHT22;4940;50.900;4.672;2023-04-01T07:54:11;10.50;99.90
9802;DHT22;4940;50.900;4.672;2023-04-01T07:56:45;10.30;99.90
9802;DHT22;4940;50.900;4.672;2023-04-01T07:59:21;10.30;99.90
9802;DHT22;4940;50.900;4.672;2023-04-01T08:01:58;10.40;99.90
9802;DHT22;4940;50.900;4.672;2023-04-01T08:04:41;10.40;99.90
9802;DHT22;4940;50.900;4.672;2023-04-01T08:07:15;10.40;99.90
9802;DHT22;4940;50.900;4.672;2023-04-01T08:09:48;10.40;99.90
9802;DHT22;4940;50.900;4.672;2023-04-01T08:12:31;10.40;99.90
9802;DHT22;4940;50.900;4.672;2023-04-01T08:15:10;10.40;99.90
9802;DHT22;4940;50.900;4.672;2023-04-01T08:17:46;10.40;99.90
9802;DHT22;4940;50.900;4.672;2023-04-01T08:20:26;10.40;99.90
9802;DHT22;4940;50.900;4.672;2023-04-01T08:23:00;10.40;99.90
9802;DHT22;4940;50.900;4.672;2023-04-01T08:25:29;10.40;99.90
9802;DHT22;4940;50.900;4.672;2023-04-01T08:28:00;10.40;99.90
9802;DHT22;4940;50.900;4.672;2023-04-01T08:30:38;10.50;99.90
9802;DHT22;4940;50.900;4.672;2023-04-01T08:35:46;10.20;99.90
9802;DHT22;4940;50.900;4.672;2023-04-01T08:38:19;10.60;99.90
9802;DHT22;4940;50.900;4.672;2023-04-01T08:41:06;10.50;99.90
9802;DHT22;4940;50.900;4.672;2023-04-01T08:43:49;10.50;99.90
9802;DHT22;4940;50.900;4.672;2023-04-01T08:49:22;10.60;99.90
9802;DHT22;4940;50.900;4.672;2023-04-01T08:52:22;10.70;99.90
9802;DHT22;4940;50.900;4.672;2023-04-01T08:58:18;10.30;99.90
9802;DHT22;4940;50.900;4.672;2023-04-01T09:00:52;10.70;99.90
9802;DHT22;4940;50.900;4.672;2023-04-01T09:03:42;10.70;99.90
9802;DHT22;4940;50.900;4.672;2023-04-01T09:06:37;10.70;99.90
9802;DHT22;4940;50.900;4.672;2023-04-01T09:09:25;10.70;99.90
9802;DHT22;4940;50.900;4.672;2023-04-01T09:15:01;10.80;99.90
9802;DHT22;4940;50.900;4.672;2023-04-01T09:18:03;10.90;99.90
9802;DHT22;4940;50.900;4.672;2023-04-01T09:20:45;10.90;99.90
9802;DHT22;4940;50.900;4.672;2023-04-01T09:23:40;11.00;99.90
9802;DHT22;4940;50.900;4.672;2023-04-01T09:26:27;11.00;99.90
9802;DHT22;4940;50.900;4.672;2023-04-01T09:29:02;11.00;99.90
9802;DHT22;4940;50.900;4.672;2023-04-01T09:31:57;11.00;99.90
9802;DHT22;4940;50.900;4.672;2023-04-01T09:34:41;11.10;99.90
9802;DHT22;4940;50.900;4.672;2023-04-01T09:37:20;11.10;99.90
9802;DHT22;4940;50.900;4.672;2023-04-01T09:40:17;11.10;99.90
9802;DHT22;4940;50.900;4.672;2023-04-01T09:42:54;11.10;99.90
9802;DHT22;4940;50.900;4.672;2023-04-01T09:45:38;11.00;99.90
9802;DHT22;4940;50.900;4.672;2023-04-01T09:48:28;11.20;99.90
9802;DHT22;4940;50.900;4.672;2023-04-01T09:51:06;11.20;99.90
9802;DHT22;4940;50.900;4.672;2023-04-01T09:53:59;11.20;99.90
9802;DHT22;4940;50.900;4.672;2023-04-01T09:56:59;11.20;99.90
9802;DHT22;4940;50.900;4.672;2023-04-01T10:00:08;11.20;99.90
9802;DHT22;4940;50.900;4.672;2023-04-01T10:03:05;11.20;99.90
9802;DHT22;4940;50.900;4.672;2023-04-01T10:12:27;11.30;99.90
9802;DHT22;4940;50.900;4.672;2023-04-01T10:18:40;11.30;99.90
9802;DHT22;4940;50.900;4.672;2023-04-01T10:27:39;11.60;99.90
9802;DHT22;4940;50.900;4.672;2023-04-01T10:30:34;11.60;99.90
9802;DHT22;4940;50.900;4.672;2023-04-01T10:36:46;11.90;99.90
9802;DHT22;4940;50.900;4.672;2023-04-01T10:42:53;12.10;99.90
9802;DHT22;4940;50.900;4.672;2023-04-01T10:52:05;12.40;99.90
9802;DHT22;4940;50.900;4.672;2023-04-01T10:54:46;12.60;99.90
9802;DHT22;4940;50.900;4.672;2023-04-01T10:57:31;12.50;99.90
9802;DHT22;4940;50.900;4.672;2023-04-01T11:03:22;12.60;99.90
9802;DHT22;4940;50.900;4.672;2023-04-01T11:12:35;12.30;99.90
9802;DHT22;4940;50.900;4.672;2023-04-01T11:24:36;12.20;99.90
9802;DHT22;4940;50.900;4.672;2023-04-01T11:27:20;12.10;99.90
9802;DHT22;4940;50.900;4.672;2023-04-01T11:30:02;12.10;99.90
9802;DHT22;4940;50.900;4.672;2023-04-01T11:32:50;12.00;99.90
9802;DHT22;4940;50.900;4.672;2023-04-01T11:35:32;11.90;99.90
9802;DHT22;4940;50.900;4.672;2023-04-01T11:38:15;11.90;99.90
9802;DHT22;4940;50.900;4.672;2023-04-01T11:40:49;11.90;99.90
9802;DHT22;4940;50.900;4.672;2023-04-01T11:43:24;11.90;99.90
9802;DHT22;4940;50.900;4.672;2023-04-01T11:46:00;11.80;99.90
9802;DHT22;4940;50.900;4.672;2023-04-01T11:48:44;11.90;99.90
9802;DHT22;4940;50.900;4.672;2023-04-01T11:51:44;12.00;99.90
9802;DHT22;4940;50.900;4.672;2023-04-01T11:54:27;11.90;99.90
9802;DHT22;4940;50.900;4.672;2023-04-01T11:57:05;11.90;99.90
9802;DHT22;4940;50.900;4.672;2023-04-01T12:02:25;12.10;99.90
9802;DHT22;4940;50.900;4.672;2023-04-01T12:05:08;12.10;99.90
9802;DHT22;4940;50.900;4.672;2023-04-01T12:07:53;12.30;99.90
9802;DHT22;4940;50.900;4.672;2023-04-01T12:10:26;12.30;99.90
9802;DHT22;4940;50.900;4.672;2023-04-01T12:13:02;12.30;99.90
9802;DHT22;4940;50.900;4.672;2023-04-01T12:15:42;12.60;99.90
9802;DHT22;4940;50.900;4.672;2023-04-01T12:18:17;12.40;99.90
9802;DHT22;4940;50.900;4.672;2023-04-01T12:23:46;12.50;99.90
9802;DHT22;4940;50.900;4.672;2023-04-01T12:26:41;12.60;99.90
9802;DHT22;4940;50.900;4.672;2023-04-01T12:32:20;12.70;99.90
9802;DHT22;4940;50.900;4.672;2023-04-01T12:35:11;12.60;99.90
9802;DHT22;4940;50.900;4.672;2023-04-01T12:40:38;12.30;99.90
9802;DHT22;4940;50.900;4.672;2023-04-01T12:43:28;12.20;99.90
9802;DHT22;4940;50.900;4.672;2023-04-01T12:46:08;12.20;99.90
9802;DHT22;4940;50.900;4.672;2023-04-01T12:49:07;12.20;99.90
9802;DHT22;4940;50.900;4.672;2023-04-01T12:51:56;12.20;99.90
9802;DHT22;4940;50.900;4.672;2023-04-01T12:54:48;12.10;99.90
9802;DHT22;4940;50.900;4.672;2023-04-01T13:00:12;12.10;99.90
9802;DHT22;4940;50.900;4.672;2023-04-01T13:02:52;12.00;99.90
9802;DHT22;4940;50.900;4.672;2023-04-01T13:05:43;12.10;99.90
9802;DHT22;4940;50.900;4.672;2023-04-01T13:08:22;12.20;99.90
9802;DHT22;4940;50.900;4.672;2023-04-01T13:11:02;12.40;99.90
9802;DHT22;4940;50.900;4.672;2023-04-01T13:14:07;12.00;99.90
9802;DHT22;4940;50.900;4.672;2023-04-01T13:16:39;12.00;99.90
9802;DHT22;4940;50.900;4.672;2023-04-01T13:19:15;12.10;99.90
9802;DHT22;4940;50.900;4.672;2023-04-01T13:21:51;12.20;99.90
9802;DHT22;4940;50.900;4.672;2023-04-01T13:24:31;12.10;99.90
9802;DHT22;4940;50.900;4.672;2023-04-01T13:27:08;12.20;99.90
9802;DHT22;4940;50.900;4.672;2023-04-01T13:29:41;12.20;99.90
9802;DHT22;4940;50.900;4.672;2023-04-01T13:32:23;12.30;99.90
9802;DHT22;4940;50.900;4.672;2023-04-01T13:35:03;12.30;99.90
9802;DHT22;4940;50.900;4.672;2023-04-01T13:37:48;12.30;99.90
9802;DHT22;4940;50.900;4.672;2023-04-01T13:43:19;12.30;99.90
9802;DHT22;4940;50.900;4.672;2023-04-01T13:46:19;12.30;99.90
9802;DHT22;4940;50.900;4.672;2023-04-01T13:49:14;12.20;99.90
9802;DHT22;4940;50.900;4.672;2023-04-01T13:52:18;12.00;99.90
9802;DHT22;4940;50.900;4.672;2023-04-01T13:58:09;12.10;99.90
9802;DHT22;4940;50.900;4.672;2023-04-01T14:00:55;12.10;99.90
9802;DHT22;4940;50.900;4.672;2023-04-01T14:03:37;12.10;99.90
9802;DHT22;4940;50.900;4.672;2023-04-01T14:06:19;12.20;99.90
9802;DHT22;4940;50.900;4.672;2023-04-01T14:09:20;12.20;99.90
9802;DHT22;4940;50.900;4.672;2023-04-01T14:11:54;12.20;99.90
9802;DHT22;4940;50.900;4.672;2023-04-01T14:14:33;12.10;99.90
9802;DHT22;4940;50.900;4.672;2023-04-01T14:17:25;12.10;99.90
9802;DHT22;4940;50.900;4.672;2023-04-01T14:20:18;12.10;99.90
9802;DHT22;4940;50.900;4.672;2023-04-01T14:22:59;12.00;99.90
9802;DHT22;4940;50.900;4.672;2023-04-01T14:28:34;12.00;99.90
9802;DHT22;4940;50.900;4.672;2023-04-01T14:31:23;12.00;99.90
9802;DHT22;4940;50.900;4.672;2023-04-01T14:34:00;12.00;99.90
9802;DHT22;4940;50.900;4.672;2023-04-01T14:36:45;12.10;99.90
9802;DHT22;4940;50.900;4.672;2023-04-01T14:39:22;12.10;99.90
9802;DHT22;4940;50.900;4.672;2023-04-01T14:42:03;12.20;99.90
9802;DHT22;4940;50.900;4.672;2023-04-01T14:47:39;12.20;99.90
9802;DHT22;4940;50.900;4.672;2023-04-01T14:52:50;13.40;99.90
9802;DHT22;4940;50.900;4.672;2023-04-01T14:55:28;12.40;99.90
9802;DHT22;4940;50.900;4.672;2023-04-01T14:57:59;12.20;99.90
9802;DHT22;4940;50.900;4.672;2023-04-01T15:00:41;12.50;99.90
9802;DHT22;4940;50.900;4.672;2023-04-01T15:03:19;14.70;99.90
9802;DHT22;4940;50.900;4.672;2023-04-01T15:05:50;12.60;99.90
9802;DHT22;4940;50.900;4.672;2023-04-01T15:08:24;12.50;99.90
9802;DHT22;4940;50.900;4.672;2023-04-01T15:17:18;12.70;99.90
9802;DHT22;4940;50.900;4.672;2023-04-01T15:19:58;12.40;99.90
9802;DHT22;4940;50.900;4.672;2023-04-01T15:22:43;12.40;99.90
9802;DHT22;4940;50.900;4.672;2023-04-01T15:25:31;12.20;99.90
9802;DHT22;4940;50.900;4.672;2023-04-01T15:28:08;12.10;99.90
9802;DHT22;4940;50.900;4.672;2023-04-01T15:30:38;12.00;99.90
9802;DHT22;4940;50.900;4.672;2023-04-01T15:33:39;12.00;99.90
9802;DHT22;4940;50.900;4.672;2023-04-01T15:36:19;12.00;99.90
9802;DHT22;4940;50.900;4.672;2023-04-01T15:38:53;11.80;99.90
9802;DHT22;4940;50.900;4.672;2023-04-01T15:41:37;12.00;99.90
9802;DHT22;4940;50.900;4.672;2023-04-01T15:44:32;11.80;99.90
9802;DHT22;4940;50.900;4.672;2023-04-01T15:47:02;11.70;99.90
9802;DHT22;4940;50.900;4.672;2023-04-01T15:49:36;11.70;99.90
9802;DHT22;4940;50.900;4.672;2023-04-01T15:52:14;11.70;99.90
9802;DHT22;4940;50.900;4.672;2023-04-01T15:58:05;11.70;99.90
9802;DHT22;4940;50.900;4.672;2023-04-01T16:00:43;11.70;99.90
9802;DHT22;4940;50.900;4.672;2023-04-01T16:03:19;11.60;99.90
9802;DHT22;4940;50.900;4.672;2023-04-01T16:06:01;11.60;99.90
9802;DHT22;4940;50.900;4.672;2023-04-01T16:08:54;11.60;99.90
9802;DHT22;4940;50.900;4.672;2023-04-01T16:11:33;11.60;99.90
9802;DHT22;4940;50.900;4.672;2023-04-01T16:14:15;11.60;99.90
9802;DHT22;4940;50.900;4.672;2023-04-01T16:16:57;11.50;99.90
9802;DHT22;4940;50.900;4.672;2023-04-01T16:19:33;11.50;99.90
9802;DHT22;4940;50.900;4.672;2023-04-01T16:22:08;11.50;99.90
9802;DHT22;4940;50.900;4.672;2023-04-01T16:24:43;11.40;99.90
9802;DHT22;4940;50.900;4.672;2023-04-01T16:29:47;11.50;99.90
9802;DHT22;4940;50.900;4.672;2023-04-01T16:32:35;11.40;99.90
9802;DHT22;4940;50.900;4.672;2023-04-01T16:35:23;11.40;99.90
9802;DHT22;4940;50.900;4.672;2023-04-01T16:37:55;11.30;99.90
9802;DHT22;4940;50.900;4.672;2023-04-01T16:40:37;11.30;99.90
9802;DHT22;4940;50.900;4.672;2023-04-01T16:43:13;11.20;99.90
9802;DHT22;4940;50.900;4.672;2023-04-01T16:45:51;11.20;99.90
9802;DHT22;4940;50.900;4.672;2023-04-01T16:48:22;11.10;99.90
9802;DHT22;4940;50.900;4.672;2023-04-01T16:50:58;11.10;99.90
9802;DHT22;4940;50.900;4.672;2023-04-01T16:53:35;11.10;99.90
9802;DHT22;4940;50.900;4.672;2023-04-01T16:56:10;11.00;99.90
9802;DHT22;4940;50.900;4.672;2023-04-01T16:58:42;11.00;99.90
9802;DHT22;4940;50.900;4.672;2023-04-01T17:01:17;10.90;99.90
9802;DHT22;4940;50.900;4.672;2023-04-01T17:06:28;10.90;99.90
9802;DHT22;4940;50.900;4.672;2023-04-01T17:09:10;10.80;99.90
9802;DHT22;4940;50.900;4.672;2023-04-01T17:11:46;10.90;99.90
9802;DHT22;4940;50.900;4.672;2023-04-01T17:14:24;10.90;99.90
9802;DHT22;4940;50.900;4.672;2023-04-01T17:17:01;10.80;99.90
9802;DHT22;4940;50.900;4.672;2023-04-01T17:19:45;10.70;99.90
9802;DHT22;4940;50.900;4.672;2023-04-01T17:22:27;10.80;99.90
9802;DHT22;4940;50.900;4.672;2023-04-01T17:30:22;10.80;99.90
9802;DHT22;4940;50.900;4.672;2023-04-01T17:33:22;10.80;99.90
9802;DHT22;4940;50.900;4.672;2023-04-01T17:38:47;10.80;99.90
9802;DHT22;4940;50.900;4.672;2023-04-01T17:57:44;10.60;99.90
9802;DHT22;4940;50.900;4.672;2023-04-01T18:00:21;10.60;99.90
9802;DHT22;4940;50.900;4.672;2023-04-01T18:02:59;10.60;99.90
9802;DHT22;4940;50.900;4.672;2023-04-01T18:05:41;10.70;99.90
9802;DHT22;4940;50.900;4.672;2023-04-01T18:08:26;10.60;99.90
9802;DHT22;4940;50.900;4.672;2023-04-01T18:11:05;10.60;99.90
9802;DHT22;4940;50.900;4.672;2023-04-01T18:13:51;10.60;99.90
9802;DHT22;4940;50.900;4.672;2023-04-01T18:16:41;10.60;99.90
9802;DHT22;4940;50.900;4.672;2023-04-01T18:19:18;10.40;99.90
9802;DHT22;4940;50.900;4.672;2023-04-01T18:21:53;10.70;99.90
9802;DHT22;4940;50.900;4.672;2023-04-01T18:24:26;10.50;99.90
9802;DHT22;4940;50.900;4.672;2023-04-01T18:27:03;10.60;99.90
9802;DHT22;4940;50.900;4.672;2023-04-01T18:29:41;10.50;99.90
9802;DHT22;4940;50.900;4.672;2023-04-01T18:34:54;10.60;99.90
9802;DHT22;4940;50.900;4.672;2023-04-01T18:37:30;10.50;99.90
9802;DHT22;4940;50.900;4.672;2023-04-01T18:40:10;10.50;99.90
9802;DHT22;4940;50.900;4.672;2023-04-01T18:45:18;10.40;99.90
9802;DHT22;4940;50.900;4.672;2023-04-01T18:47:51;10.30;99.90
9802;DHT22;4940;50.900;4.672;2023-04-01T18:50:28;10.40;99.90
9802;DHT22;4940;50.900;4.672;2023-04-01T18:53:08;10.40;99.90
9802;DHT22;4940;50.900;4.672;2023-04-01T18:55:40;10.40;99.90
9802;DHT22;4940;50.900;4.672;2023-04-01T18:58:29;10.40;99.90
9802;DHT22;4940;50.900;4.672;2023-04-01T19:01:16;10.40;99.90
9802;DHT22;4940;50.900;4.672;2023-04-01T19:06:26;10.40;99.90
9802;DHT22;4940;50.900;4.672;2023-04-01T19:09:11;10.40;99.90
9802;DHT22;4940;50.900;4.672;2023-04-01T19:11:45;10.40;99.90
9802;DHT22;4940;50.900;4.672;2023-04-01T19:14:22;10.30;99.90
9802;DHT22;4940;50.900;4.672;2023-04-01T19:16:57;10.30;99.90
9802;DHT22;4940;50.900;4.672;2023-04-01T19:19:48;10.50;99.90
9802;DHT22;4940;50.900;4.672;2023-04-01T19:22:32;10.30;99.90
9802;DHT22;4940;50.900;4.672;2023-04-01T19:25:22;10.30;99.90
9802;DHT22;4940;50.900;4.672;2023-04-01T19:30:42;10.30;99.90
9802;DHT22;4940;50.900;4.672;2023-04-01T19:33:37;10.30;99.90
9802;DHT22;4940;50.900;4.672;2023-04-01T19:36:11;10.20;99.90
9802;DHT22;4940;50.900;4.672;2023-04-01T19:38:43;10.30;99.90
9802;DHT22;4940;50.900;4.672;2023-04-01T19:41:32;10.20;99.90
9802;DHT22;4940;50.900;4.672;2023-04-01T19:44:12;10.00;99.90
9802;DHT22;4940;50.900;4.672;2023-04-01T19:46:44;10.10;99.90
9802;DHT22;4940;50.900;4.672;2023-04-01T19:49:22;10.10;99.90
9802;DHT22;4940;50.900;4.672;2023-04-01T19:51:54;10.30;99.90
9802;DHT22;4940;50.900;4.672;2023-04-01T19:54:33;10.10;99.90
9802;DHT22;4940;50.900;4.672;2023-04-01T19:57:15;10.10;99.90
9802;DHT22;4940;50.900;4.672;2023-04-01T19:59:48;10.10;99.90
9802;DHT22;4940;50.900;4.672;2023-04-01T20:02:45;10.00;99.90
9802;DHT22;4940;50.900;4.672;2023-04-01T20:05:30;10.00;99.90
9802;DHT22;4940;50.900;4.672;2023-04-01T20:08:05;10.10;99.90
9802;DHT22;4940;50.900;4.672;2023-04-01T20:10:38;10.10;99.90
9802;DHT22;4940;50.900;4.672;2023-04-01T20:13:16;10.10;99.90
9802;DHT22;4940;50.900;4.672;2023-04-01T20:18:17;10.00;99.90
9802;DHT22;4940;50.900;4.672;2023-04-01T20:20:55;10.00;99.90
9802;DHT22;4940;50.900;4.672;2023-04-01T20:23:42;10.10;99.90
9802;DHT22;4940;50.900;4.672;2023-04-01T20:26:11;10.00;99.90
9802;DHT22;4940;50.900;4.672;2023-04-01T20:29:02;10.00;99.90
9802;DHT22;4940;50.900;4.672;2023-04-01T20:31:34;10.10;99.90
9802;DHT22;4940;50.900;4.672;2023-04-01T20:34:20;10.00;99.90
9802;DHT22;4940;50.900;4.672;2023-04-01T20:37:07;10.20;99.90
9802;DHT22;4940;50.900;4.672;2023-04-01T20:45:59;10.00;99.90
9802;DHT22;4940;50.900;4.672;2023-04-01T20:48:50;10.00;99.90
9802;DHT22;4940;50.900;4.672;2023-04-01T20:51:22;10.00;99.90
9802;DHT22;4940;50.900;4.672;2023-04-01T20:53:54;10.00;99.90
9802;DHT22;4940;50.900;4.672;2023-04-01T20:56:32;10.00;99.90
9802;DHT22;4940;50.900;4.672;2023-04-01T20:59:22;10.10;99.90
9802;DHT22;4940;50.900;4.672;2023-04-01T21:02:00;10.00;99.90
9802;DHT22;4940;50.900;4.672;2023-04-01T21:04:44;10.00;99.90
9802;DHT22;4940;50.900;4.672;2023-04-01T21:10:02;10.10;99.90
9802;DHT22;4940;50.900;4.672;2023-04-01T21:12:35;10.10;99.90
9802;DHT22;4940;50.900;4.672;2023-04-01T21:17:58;10.10;99.90
9802;DHT22;4940;50.900;4.672;2023-04-01T21:26:23;10.20;99.90
9802;DHT22;4940;50.900;4.672;2023-04-01T21:29:19;10.20;99.90
9802;DHT22;4940;50.900;4.672;2023-04-01T21:32:04;10.30;99.90
9802;DHT22;4940;50.900;4.672;2023-04-01T21:34:42;10.20;99.90
9802;DHT22;4940;50.900;4.672;2023-04-01T21:40:43;10.40;99.90
9802;DHT22;4940;50.900;4.672;2023-04-01T21:46:28;10.30;99.90
9802;DHT22;4940;50.900;4.672;2023-04-01T21:49:16;10.20;99.90
9802;DHT22;4940;50.900;4.672;2023-04-01T21:58:19;10.50;99.90
9802;DHT22;4940;50.900;4.672;2023-04-01T22:00:54;10.30;99.90
9802;DHT22;4940;50.900;4.672;2023-04-01T22:03:46;10.30;99.90
9802;DHT22;4940;50.900;4.672;2023-04-01T22:06:23;10.30;99.90
9802;DHT22;4940;50.900;4.672;2023-04-01T22:09:11;10.30;99.90
9802;DHT22;4940;50.900;4.672;2023-04-01T22:11:46;10.30;99.90
9802;DHT22;4940;50.900;4.672;2023-04-01T22:14:25;10.20;99.90
9802;DHT22;4940;50.900;4.672;2023-04-01T22:16:57;10.10;99.90
9802;DHT22;4940;50.900;4.672;2023-04-01T22:19:36;10.20;99.90
9802;DHT22;4940;50.900;4.672;2023-04-01T22:22:11;10.20;99.90
9802;DHT22;4940;50.900;4.672;2023-04-01T22:24:52;10.20;99.90
9802;DHT22;4940;50.900;4.672;2023-04-01T22:27:29;10.20;99.90
9802;DHT22;4940;50.900;4.672;2023-04-01T22:30:07;10.20;99.90
9802;DHT22;4940;50.900;4.672;2023-04-01T22:32:42;10.20;99.90
9802;DHT22;4940;50.900;4.672;2023-04-01T22:35:21;10.20;99.90
9802;DHT22;4940;50.900;4.672;2023-04-01T22:37:56;10.20;99.90
9802;DHT22;4940;50.900;4.672;2023-04-01T22:40:32;10.20;99.90
9802;DHT22;4940;50.900;4.672;2023-04-01T22:43:04;10.20;99.90
9802;DHT22;4940;50.900;4.672;2023-04-01T22:45:47;10.20;99.90
9802;DHT22;4940;50.900;4.672;2023-04-01T22:50:50;10.30;99.90
9802;DHT22;4940;50.900;4.672;2023-04-01T22:53:29;10.40;99.90
9802;DHT22;4940;50.900;4.672;2023-04-01T22:56:04;10.10;99.90
9802;DHT22;4940;50.900;4.672;2023-04-01T22:58:36;10.30;99.90
9802;DHT22;4940;50.900;4.672;2023-04-01T23:01:10;10.10;99.90
9802;DHT22;4940;50.900;4.672;2023-04-01T23:03:41;10.10;99.90
9802;DHT22;4940;50.900;4.672;2023-04-01T23:06:14;10.10;99.90
9802;DHT22;4940;50.900;4.672;2023-04-01T23:08:57;10.10;99.90
9802;DHT22;4940;50.900;4.672;2023-04-01T23:11:31;10.30;99.90
9802;DHT22;4940;50.900;4.672;2023-04-01T23:14:34;10.10;99.90
9802;DHT22;4940;50.900;4.672;2023-04-01T23:17:12;10.00;99.90
9802;DHT22;4940;50.900;4.672;2023-04-01T23:19:47;10.00;99.90
9802;DHT22;4940;50.900;4.672;2023-04-01T23:22:23;10.00;99.90
9802;DHT22;4940;50.900;4.672;2023-04-01T23:24:57;10.00;99.90
9802;DHT22;4940;50.900;4.672;2023-04-01T23:27:31;10.00;99.90
9802;DHT22;4940;50.900;4.672;2023-04-01T23:34:58;9.90;99.90
9802;DHT22;4940;50.900;4.672;2023-04-01T23:39:55;9.90;99.90
9802;DHT22;4940;50.900;4.672;2023-04-01T23:42:26;9.90;99.90
9802;DHT22;4940;50.900;4.672;2023-04-01T23:44:58;9.90;99.90